Kezdőlap
METAR-TAF:

METAR-TAF

Repülőterek :

Wattay nemzetközi repülőtér

Vientián, Laosz

földrajzi szélesség: 17-57N, földrajzi hosszúság: 102-34E, magasság: 171 m

Jelenlegi meteorológiai megfigyelések

A jelentés 21 perccel ezelõtt készült, 02:00 UTC
Észak-északkeleti szél 2 kt
Hőmérséklet 32°C
Páratartalom 75%
Légköri nyomás 1010 hPa
Látótávolság: 5000 m
Párásság,

METAR: VLVT 130200Z 02002KT 5000 BR NSC 32/27 Q1010 NOSIG

Idő: 09:21 (02:21 UTC)

Előrejelzés

A jelentés 3 órával és 21 perccel ezelõtt készült, 23:00 UTC
Az előrejelzés 13-én 00 óra UTC és 13-én 24 óra UTC között érvényes
Nyugat-délnyugati szél 4 kt
Látótávolság: 8000 m
Kevés felhő 2000 lábon
Kevés felhő 20000 lábon

TAF: VLVT 122300Z 1300/1324 24004KT 8000 FEW020 FEW200

Meteorológiai megfigyelések és előrejelzések több, mint 4000 repülőtéren (METAR és TAF jelentéseket).

A térképen piros és sárga pontok jelzik az elérhető meteorológiai állomásokat.

Mozgassa az egeret a pont fölött, hogy megjelenjen az állomás neve.

Azután kattintson az időjárási megfigyelések és előrejelzések megtekintéséhez.

A térkép megváltoztatása: kattintson a fekete keresztel jelölt zöld gombra ráközelítéshez, a vonallal jelölt zöld gombra távolításhoz, vagy a zöld nyilakra a szomszédos térképek eléréséhez.


METAR-TAF: